Time;durP1;ratioP1;P1;durP2;ratioP2;P2;SDS_P1;SDS_P2;PMS_P1;PMS_P2;Temp;Humidity;BMP_temperature;BMP_pressure;BME280_temperature;BME280_humidity;BME280_pressure;Samples;Min_cycle;Max_cycle;Signal;HPM_P1;HPM_P2
2022/06/30 00:01:57;;;;;;;3.37;2.40;;;;;;;;;;8350641;28;20043;-60
2022/06/30 00:05:57;;;;;;;4.60;2.25;;;;;;;;;;8353202;28;20035;-58
2022/06/30 00:09:57;;;;;;;3.17;2.10;;;;;;;;;;8352950;28;20151;-58
2022/06/30 00:13:58;;;;;;;4.10;2.00;;;;;;;;;;8353042;28;20129;-59
2022/06/30 00:17:58;;;;;;;2.78;2.20;;;;;;;;;;8351639;28;20041;-59
2022/06/30 00:21:58;;;;;;;3.55;2.05;;;;;;;;;;8347341;28;20024;-59
2022/06/30 00:25:58;;;;;;;6.53;2.17;;;;;;;;;;8353970;28;20020;-59
2022/06/30 00:29:58;;;;;;;3.53;2.00;;;;;;;;;;8355974;28;20032;-58
2022/06/30 00:33:59;;;;;;;3.97;2.00;;;;;;;;;;8351928;28;20037;-59
2022/06/30 00:37:59;;;;;;;4.82;2.20;;;;;;;;;;8351410;28;20074;-59
2022/06/30 00:41:59;;;;;;;4.57;2.20;;;;;;;;;;8351066;28;20024;-59
2022/06/30 00:45:59;;;;;;;3.95;2.35;;;;;;;;;;8351585;28;20832;-59
2022/06/30 00:50:00;;;;;;;5.43;2.58;;;;;;;;;;8354469;28;20411;-59
2022/06/30 00:54:02;;;;;;;6.20;2.33;;;;;;;;;;8354010;28;20109;-59
2022/06/30 00:58:04;;;;;;;2.85;2.10;;;;;;;;;;8352410;28;20016;-59
2022/06/30 01:02:04;;;;;;;4.22;2.10;;;;;;;;;;8350158;28;20044;-58
2022/06/30 01:06:05;;;;;;;3.70;2.25;;;;;;;;;;8350789;28;20397;-60
2022/06/30 01:14:25;;;;;;;3.13;1.80;;;;;;;;;;8350348;28;20026;-58
2022/06/30 01:18:25;;;;;;;3.28;1.98;;;;;;;;;;8351208;28;20501;-59
2022/06/30 01:22:25;;;;;;;3.57;1.90;;;;;;;;;;8354804;28;20034;-59
2022/06/30 01:26:27;;;;;;;6.47;1.57;;;;;;;;;;8350432;28;20031;-59
2022/06/30 01:30:27;;;;;;;2.00;1.80;;;;;;;;;;8350390;28;20298;-59
2022/06/30 01:34:27;;;;;;;2.63;1.85;;;;;;;;;;8352638;28;20032;-60
2022/06/30 01:38:27;;;;;;;2.45;2.00;;;;;;;;;;8353118;28;20021;-60
2022/06/30 01:42:28;;;;;;;2.70;1.75;;;;;;;;;;8351162;28;20039;-59
2022/06/30 01:46:28;;;;;;;1.92;1.70;;;;;;;;;;8348986;28;20040;-59
2022/06/30 01:50:29;;;;;;;2.65;1.90;;;;;;;;;;8351605;28;20017;-59
2022/06/30 01:54:29;;;;;;;2.33;1.85;;;;;;;;;;8349577;28;20123;-58
2022/06/30 01:58:30;;;;;;;2.85;1.88;;;;;;;;;;8349204;28;20024;-59
2022/06/30 02:02:30;;;;;;;2.07;1.70;;;;;;;;;;8349906;28;20045;-58
2022/06/30 02:06:30;;;;;;;2.85;1.90;;;;;;;;;;8350564;28;20063;-59
2022/06/30 02:10:30;;;;;;;3.42;1.65;;;;;;;;;;8349027;28;20102;-59
2022/06/30 02:14:30;;;;;;;1.85;1.63;;;;;;;;;;8349127;28;20102;-59
2022/06/30 02:18:31;;;;;;;3.90;1.60;;;;;;;;;;8351392;28;20119;-59
2022/06/30 02:22:31;;;;;;;1.80;1.70;;;;;;;;;;8347374;28;20033;-59
2022/06/30 02:26:31;;;;;;;1.90;1.60;;;;;;;;;;8350820;28;20081;-59
2022/06/30 02:30:32;;;;;;;1.95;1.40;;;;;;;;;;8349004;28;20033;-58
2022/06/30 02:34:32;;;;;;;2.17;1.60;;;;;;;;;;8352811;28;20626;-60
2022/06/30 02:38:32;;;;;;;5.57;1.80;;;;;;;;;;8350533;28;20041;-58
2022/06/30 02:42:32;;;;;;;3.25;1.80;;;;;;;;;;8347530;28;20175;-59
2022/06/30 02:46:33;;;;;;;2.33;1.57;;;;;;;;;;8347573;28;20068;-59
2022/06/30 02:50:33;;;;;;;4.68;1.70;;;;;;;;;;8349347;28;20116;-58
2022/06/30 02:54:33;;;;;;;2.33;1.50;;;;;;;;;;8351034;28;20419;-58
2022/06/30 02:58:33;;;;;;;2.60;1.67;;;;;;;;;;8350495;28;20085;-58
2022/06/30 03:02:34;;;;;;;1.75;1.60;;;;;;;;;;8345165;28;20570;-58
2022/06/30 03:06:34;;;;;;;1.83;1.60;;;;;;;;;;8348495;28;20576;-60
2022/06/30 03:10:34;;;;;;;4.68;2.10;;;;;;;;;;8354907;28;20534;-59
2022/06/30 03:14:34;;;;;;;4.40;1.60;;;;;;;;;;8355094;28;20036;-58
2022/06/30 03:18:35;;;;;;;3.63;1.60;;;;;;;;;;8352630;28;21154;-58
2022/06/30 03:22:35;;;;;;;2.47;1.50;;;;;;;;;;8355431;28;20858;-58
2022/06/30 03:26:36;;;;;;;1.80;1.65;;;;;;;;;;8355399;28;20112;-60
2022/06/30 03:30:36;;;;;;;4.88;1.70;;;;;;;;;;8355269;28;20492;-58
2022/06/30 03:34:36;;;;;;;3.55;1.40;;;;;;;;;;8353989;28;20362;-58
2022/06/30 03:38:37;;;;;;;2.35;1.42;;;;;;;;;;8356214;28;20322;-59
2022/06/30 03:42:37;;;;;;;4.00;1.85;;;;;;;;;;8353837;28;20073;-58
2022/06/30 03:46:37;;;;;;;2.08;1.60;;;;;;;;;;8353685;28;20622;-58
2022/06/30 03:50:38;;;;;;;3.03;1.45;;;;;;;;;;8350288;28;20028;-58
2022/06/30 03:54:38;;;;;;;2.33;1.47;;;;;;;;;;8352234;28;20552;-57
2022/06/30 03:58:39;;;;;;;3.40;1.60;;;;;;;;;;8355697;28;20054;-58
2022/06/30 04:02:39;;;;;;;1.85;1.40;;;;;;;;;;8351967;28;20089;-59
2022/06/30 04:06:39;;;;;;;2.53;1.50;;;;;;;;;;8354358;28;20679;-59
2022/06/30 04:10:43;;;;;;;2.65;1.52;;;;;;;;;;8352948;28;20310;-58
2022/06/30 04:14:43;;;;;;;4.57;1.75;;;;;;;;;;8351784;28;20024;-58
2022/06/30 04:18:43;;;;;;;2.10;1.70;;;;;;;;;;8351048;28;20039;-58
2022/06/30 04:22:47;;;;;;;2.67;1.90;;;;;;;;;;8352730;28;20044;-58
2022/06/30 04:26:49;;;;;;;6.70;2.03;;;;;;;;;;8353403;28;20916;-59
2022/06/30 04:35:09;;;;;;;3.95;1.60;;;;;;;;;;8353864;28;20276;-58
2022/06/30 04:39:09;;;;;;;2.47;1.50;;;;;;;;;;8350434;28;20636;-59
2022/06/30 04:43:09;;;;;;;4.40;1.85;;;;;;;;;;8351922;28;20064;-57
2022/06/30 04:47:09;;;;;;;4.95;1.73;;;;;;;;;;8353617;28;20587;-58
2022/06/30 04:51:09;;;;;;;4.75;1.95;;;;;;;;;;8351023;28;20536;-57
2022/06/30 04:55:10;;;;;;;4.60;1.80;;;;;;;;;;8353098;28;20547;-57
2022/06/30 04:59:10;;;;;;;3.55;1.90;;;;;;;;;;8352906;28;20025;-57
2022/06/30 05:03:10;;;;;;;4.78;2.42;;;;;;;;;;8352414;28;20044;-58
2022/06/30 05:07:10;;;;;;;6.13;2.78;;;;;;;;;;8351694;28;20032;-59
2022/06/30 05:11:11;;;;;;;7.20;5.28;;;;;;;;;;8350168;28;20033;-58
2022/06/30 05:15:11;;;;;;;11.25;7.50;;;;;;;;;;8348974;28;20127;-59
2022/06/30 05:19:11;;;;;;;10.40;7.75;;;;;;;;;;8352231;28;20024;-58
2022/06/30 05:23:11;;;;;;;10.75;8.57;;;;;;;;;;8350586;28;20028;-59
2022/06/30 05:27:11;;;;;;;13.63;8.20;;;;;;;;;;8351127;28;20097;-60
2022/06/30 05:31:12;;;;;;;11.23;7.38;;;;;;;;;;8350101;28;20036;-58
2022/06/30 05:35:13;;;;;;;9.57;7.18;;;;;;;;;;8352740;28;20325;-60
2022/06/30 05:39:14;;;;;;;8.37;6.27;;;;;;;;;;8347468;28;20024;-60
2022/06/30 05:43:16;;;;;;;7.88;6.10;;;;;;;;;;8350170;28;20052;-60
2022/06/30 05:47:17;;;;;;;11.00;6.00;;;;;;;;;;8337663;28;20039;-59
2022/06/30 05:51:17;;;;;;;7.05;5.47;;;;;;;;;;8344488;28;20036;-59
2022/06/30 05:55:17;;;;;;;14.32;7.70;;;;;;;;;;8343626;28;20348;-58
2022/06/30 05:59:18;;;;;;;10.65;5.70;;;;;;;;;;8345368;28;20020;-59
2022/06/30 06:03:18;;;;;;;10.02;5.80;;;;;;;;;;8344949;28;20044;-58
2022/06/30 06:07:19;;;;;;;11.10;5.88;;;;;;;;;;8344855;28;20028;-59
2022/06/30 06:11:19;;;;;;;9.20;7.10;;;;;;;;;;8342650;28;20031;-59
2022/06/30 06:15:20;;;;;;;7.50;6.35;;;;;;;;;;8343071;28;20044;-59
2022/06/30 06:19:21;;;;;;;8.23;6.55;;;;;;;;;;8345589;28;20024;-58
2022/06/30 06:23:22;;;;;;;6.43;5.83;;;;;;;;;;8342038;28;20317;-59
2022/06/30 06:27:22;;;;;;;9.95;6.05;;;;;;;;;;8349167;28;20024;-59
2022/06/30 06:31:22;;;;;;;8.68;6.28;;;;;;;;;;8348008;28;20048;-59
2022/06/30 06:35:22;;;;;;;9.10;5.47;;;;;;;;;;8348755;28;20016;-59
2022/06/30 06:39:22;;;;;;;6.63;4.70;;;;;;;;;;8347218;28;20020;-59
2022/06/30 06:43:23;;;;;;;10.82;5.20;;;;;;;;;;8343445;28;20703;-59
2022/06/30 06:47:23;;;;;;;5.57;4.90;;;;;;;;;;8354391;28;21001;-58
2022/06/30 06:51:23;;;;;;;6.05;3.90;;;;;;;;;;8357215;28;20318;-59
2022/06/30 06:55:23;;;;;;;7.20;3.90;;;;;;;;;;8355964;28;20059;-59
2022/06/30 06:59:24;;;;;;;5.03;3.78;;;;;;;;;;8355216;28;20020;-59
2022/06/30 07:03:24;;;;;;;9.13;3.55;;;;;;;;;;8353608;28;20214;-59
2022/06/30 07:07:25;;;;;;;5.75;3.83;;;;;;;;;;8355797;28;20036;-59
2022/06/30 07:11:25;;;;;;;6.55;3.85;;;;;;;;;;8352516;28;20497;-59
2022/06/30 07:15:25;;;;;;;7.23;3.90;;;;;;;;;;8354258;28;20036;-59
2022/06/30 07:19:25;;;;;;;4.07;3.60;;;;;;;;;;8352525;28;20024;-59
2022/06/30 07:23:26;;;;;;;5.97;3.40;;;;;;;;;;8352996;28;21166;-59
2022/06/30 07:27:26;;;;;;;5.13;2.80;;;;;;;;;;8351751;28;20492;-60
2022/06/30 07:31:26;;;;;;;5.32;2.80;;;;;;;;;;8354252;28;20136;-59
2022/06/30 07:35:26;;;;;;;5.10;2.83;;;;;;;;;;8354853;28;20031;-59
2022/06/30 07:39:28;;;;;;;2.67;2.23;;;;;;;;;;8353356;28;20024;-59
2022/06/30 07:43:28;;;;;;;4.20;2.90;;;;;;;;;;8358360;28;20028;-59
2022/06/30 07:47:28;;;;;;;6.23;2.43;;;;;;;;;;8354582;28;20122;-59
2022/06/30 07:51:28;;;;;;;3.85;1.83;;;;;;;;;;8353212;28;20028;-59
2022/06/30 07:55:28;;;;;;;2.53;1.95;;;;;;;;;;8352557;28;20393;-59
2022/06/30 07:59:29;;;;;;;4.22;2.30;;;;;;;;;;8356324;28;20028;-59
2022/06/30 08:03:30;;;;;;;5.75;2.20;;;;;;;;;;8352873;28;20048;-59
2022/06/30 08:07:30;;;;;;;3.33;1.92;;;;;;;;;;8353376;28;20029;-59
2022/06/30 08:11:31;;;;;;;5.57;1.83;;;;;;;;;;8352240;28;20078;-60
2022/06/30 08:15:31;;;;;;;4.00;1.60;;;;;;;;;;8352761;28;20504;-59
2022/06/30 08:19:31;;;;;;;4.93;1.90;;;;;;;;;;8353696;28;20063;-59
2022/06/30 08:23:32;;;;;;;5.80;1.88;;;;;;;;;;8353056;28;20437;-59
2022/06/30 08:27:32;;;;;;;3.20;2.00;;;;;;;;;;8353951;28;20147;-59
2022/06/30 08:31:34;;;;;;;3.63;1.60;;;;;;;;;;8349854;28;20044;-60
2022/06/30 08:35:35;;;;;;;7.28;3.17;;;;;;;;;;8355282;28;20013;-59
2022/06/30 08:43:54;;;;;;;3.10;1.60;;;;;;;;;;8354460;28;20401;-59
2022/06/30 08:47:54;;;;;;;2.72;1.65;;;;;;;;;;8350243;28;20041;-60
2022/06/30 08:51:55;;;;;;;2.97;1.40;;;;;;;;;;8352558;28;20784;-59
2022/06/30 08:55:56;;;;;;;2.92;1.75;;;;;;;;;;8352901;28;20098;-60
2022/06/30 08:59:56;;;;;;;4.13;1.60;;;;;;;;;;8353558;28;20025;-59
2022/06/30 09:03:57;;;;;;;5.40;1.70;;;;;;;;;;8351744;28;20040;-59
2022/06/30 09:07:57;;;;;;;3.83;1.77;;;;;;;;;;8351853;28;20013;-61
2022/06/30 09:11:57;;;;;;;6.43;1.80;;;;;;;;;;8351306;28;20570;-59
2022/06/30 09:15:58;;;;;;;1.85;1.70;;;;;;;;;;8353694;28;20119;-59
2022/06/30 09:19:59;;;;;;;4.67;2.00;;;;;;;;;;8351075;28;20021;-60
2022/06/30 09:23:59;;;;;;;;;;;;;;;;;;8349888;28;20068;-60
2022/06/30 09:27:59;;;;;;;4.30;1.88;;;;;;;;;;8352247;28;19908;-59
2022/06/30 09:32:00;;;;;;;3.83;1.80;;;;;;;;;;8347166;28;20109;-59
2022/06/30 09:36:19;;;;;;;3.80;1.80;;;;;;;;;;8352418;28;20150;-59
2022/06/30 09:40:27;;;;;;;3.70;1.90;;;;;;;;;;8352522;28;20305;-59
2022/06/30 09:44:28;;;;;;;3.03;1.77;;;;;;;;;;8350625;28;20842;-59
2022/06/30 09:48:30;;;;;;;2.87;1.67;;;;;;;;;;8351796;28;20076;-60
2022/06/30 09:52:31;;;;;;;6.70;1.85;;;;;;;;;;8347895;28;20058;-59
2022/06/30 09:56:31;;;;;;;2.90;1.70;;;;;;;;;;8353352;28;20024;-60
2022/06/30 10:00:41;;;;;;;8.30;1.90;;;;;;;;;;8348719;28;20056;-59
2022/06/30 10:04:52;;;;;;;4.32;2.00;;;;;;;;;;8351062;28;20035;-60
2022/06/30 10:08:56;;;;;;;9.35;1.88;;;;;;;;;;8353561;28;20139;-59
2022/06/30 10:12:56;;;;;;;4.22;2.03;;;;;;;;;;8351147;28;20168;-59
2022/06/30 10:16:57;;;;;;;2.60;1.40;;;;;;;;;;8348610;28;20036;-59
2022/06/30 10:20:58;;;;;;;2.25;1.40;;;;;;;;;;8347077;28;20025;-59
2022/06/30 10:24:58;;;;;;;3.30;1.60;;;;;;;;;;8347285;28;20107;-59
2022/06/30 10:28:58;;;;;;;2.53;1.67;;;;;;;;;;8350414;28;20369;-60
2022/06/30 10:33:02;;;;;;;2.90;1.50;;;;;;;;;;8347630;28;20454;-60
2022/06/30 10:37:02;;;;;;;2.75;1.50;;;;;;;;;;8351501;28;20909;-61
2022/06/30 10:41:13;;;;;;;3.97;1.35;;;;;;;;;;8349297;28;20162;-61
2022/06/30 10:45:25;;;;;;;1.80;1.13;;;;;;;;;;8348305;28;20354;-61
2022/06/30 10:49:26;;;;;;;3.35;1.33;;;;;;;;;;8353415;28;20021;-63
2022/06/30 10:53:33;;;;;;;2.92;1.50;;;;;;;;;;8352678;28;20059;-61
2022/06/30 10:57:58;;;;;;;2.92;1.40;;;;;;;;;;8347502;28;20029;-60
2022/06/30 11:02:07;;;;;;;4.80;1.63;;;;;;;;;;8349022;28;20082;-60
2022/06/30 11:06:12;;;;;;;3.95;1.60;;;;;;;;;;8352849;28;20151;-60
2022/06/30 11:10:17;;;;;;;2.25;1.60;;;;;;;;;;8349332;28;20024;-60
2022/06/30 11:14:17;;;;;;;3.92;1.50;;;;;;;;;;8347765;28;20032;-59
2022/06/30 11:18:17;;;;;;;2.50;1.40;;;;;;;;;;8348111;28;20032;-59
2022/06/30 11:22:20;;;;;;;3.67;1.30;;;;;;;;;;8350992;28;20030;-60
2022/06/30 11:30:47;;;;;;;2.97;1.45;;;;;;;;;;8315202;28;20843;-60
2022/06/30 11:34:47;;;;;;;2.22;1.33;;;;;;;;;;8355192;28;20105;-60
2022/06/30 11:38:57;;;;;;;2.53;1.42;;;;;;;;;;8358508;28;20154;-60
2022/06/30 11:42:58;;;;;;;3.63;1.40;;;;;;;;;;8354249;28;20101;-59
2022/06/30 11:46:59;;;;;;;3.80;1.30;;;;;;;;;;8357181;28;20126;-60
2022/06/30 11:50:59;;;;;;;2.85;1.30;;;;;;;;;;8356995;28;20016;-60
2022/06/30 11:55:00;;;;;;;2.60;1.50;;;;;;;;;;8354389;28;20020;-60
2022/06/30 11:59:07;;;;;;;3.47;1.40;;;;;;;;;;8358023;28;20047;-60
2022/06/30 12:03:11;;;;;;;4.55;1.70;;;;;;;;;;8353630;28;20072;-60
2022/06/30 12:07:13;;;;;;;1.40;1.25;;;;;;;;;;8354604;28;20413;-60
2022/06/30 12:11:14;;;;;;;2.78;1.67;;;;;;;;;;8354954;28;20032;-60
2022/06/30 12:15:15;;;;;;;2.47;1.27;;;;;;;;;;8353902;28;20032;-60
2022/06/30 12:19:15;;;;;;;1.77;1.15;;;;;;;;;;8355816;28;20024;-60
2022/06/30 12:23:16;;;;;;;3.75;1.05;;;;;;;;;;8355463;28;20071;-59
2022/06/30 12:27:29;;;;;;;1.37;1.13;;;;;;;;;;8355688;28;20864;-59
2022/06/30 12:31:31;;;;;;;2.10;1.30;;;;;;;;;;8354953;28;20220;-59
2022/06/30 12:35:32;;;;;;;4.07;1.20;;;;;;;;;;8353975;28;20078;-60
2022/06/30 12:39:32;;;;;;;;;;;;;;;;;;8354764;28;20599;-60
2022/06/30 12:43:41;;;;;;;2.85;0.98;;;;;;;;;;8353648;28;20397;-59
2022/06/30 12:47:41;;;;;;;3.33;1.30;;;;;;;;;;8353636;28;20874;-61
2022/06/30 12:51:42;;;;;;;3.60;1.10;;;;;;;;;;8352384;28;20078;-61
2022/06/30 12:56:01;;;;;;;4.78;1.30;;;;;;;;;;8356037;28;20449;-59
2022/06/30 13:00:03;;;;;;;4.65;1.30;;;;;;;;;;8355351;28;20074;-61
2022/06/30 13:04:09;;;;;;;3.53;1.40;;;;;;;;;;8353868;28;20052;-60
2022/06/30 13:08:10;;;;;;;1.73;1.23;;;;;;;;;;8352827;28;20488;-61
2022/06/30 13:12:10;;;;;;;2.42;1.10;;;;;;;;;;8353307;28;20035;-60
2022/06/30 13:16:11;;;;;;;4.63;1.40;;;;;;;;;;8348779;28;20452;-60
2022/06/30 13:20:11;;;;;;;7.23;1.50;;;;;;;;;;8350965;28;20060;-59
2022/06/30 13:24:11;;;;;;;2.85;1.30;;;;;;;;;;8344720;28;20082;-60
2022/06/30 13:28:11;;;;;;;3.13;1.40;;;;;;;;;;8351502;28;20028;-59
2022/06/30 13:32:11;;;;;;;1.70;1.30;;;;;;;;;;8350163;28;20032;-59
2022/06/30 13:36:12;;;;;;;1.33;1.10;;;;;;;;;;8347634;28;20016;-59
2022/06/30 13:40:12;;;;;;;2.08;1.60;;;;;;;;;;8348481;28;20397;-59
2022/06/30 13:44:12;;;;;;;2.40;1.20;;;;;;;;;;8349561;28;20027;-59
2022/06/30 13:48:12;;;;;;;1.60;1.50;;;;;;;;;;8344664;28;20041;-59
2022/06/30 13:52:13;;;;;;;2.40;1.45;;;;;;;;;;8346826;28;20028;-60
2022/06/30 13:56:13;;;;;;;1.40;1.30;;;;;;;;;;8345576;28;20730;-59
2022/06/30 14:00:13;;;;;;;3.95;1.27;;;;;;;;;;8345056;28;20055;-59
2022/06/30 14:04:16;;;;;;;3.30;1.70;;;;;;;;;;8344002;28;20051;-59
2022/06/30 14:08:17;;;;;;;1.88;1.25;;;;;;;;;;8349142;28;20086;-59
2022/06/30 14:12:17;;;;;;;5.03;1.60;;;;;;;;;;8349753;28;20089;-59
2022/06/30 14:16:18;;;;;;;4.43;1.50;;;;;;;;;;8349201;28;20162;-59
2022/06/30 14:20:18;;;;;;;1.80;1.20;;;;;;;;;;8351033;28;20024;-59
2022/06/30 14:24:18;;;;;;;3.38;1.40;;;;;;;;;;8351418;28;20563;-59
2022/06/30 14:28:19;;;;;;;1.43;1.30;;;;;;;;;;8349673;28;20604;-59
2022/06/30 14:32:19;;;;;;;1.13;1.02;;;;;;;;;;8351538;28;20052;-59
2022/06/30 14:36:19;;;;;;;4.03;1.30;;;;;;;;;;8348228;28;20122;-59
2022/06/30 14:40:21;;;;;;;1.83;1.35;;;;;;;;;;8346497;28;20501;-59
2022/06/30 14:44:21;;;;;;;4.68;1.30;;;;;;;;;;8352543;28;20086;-59
2022/06/30 14:48:22;;;;;;;1.48;1.38;;;;;;;;;;8347180;28;20558;-60
2022/06/30 14:52:22;;;;;;;1.33;1.20;;;;;;;;;;8350154;28;20021;-61
2022/06/30 14:56:22;;;;;;;3.20;1.20;;;;;;;;;;8349658;28;20025;-60
2022/06/30 15:00:23;;;;;;;1.80;1.10;;;;;;;;;;8346062;28;20041;-60
2022/06/30 15:04:24;;;;;;;3.90;1.30;;;;;;;;;;8350773;28;20028;-59
2022/06/30 15:08:24;;;;;;;3.15;1.50;;;;;;;;;;8350147;28;20028;-59
2022/06/30 15:12:25;;;;;;;5.70;1.27;;;;;;;;;;8355224;28;20056;-59
2022/06/30 15:16:25;;;;;;;1.77;1.30;;;;;;;;;;8354861;28;20039;-59
2022/06/30 15:20:25;;;;;;;2.08;1.50;;;;;;;;;;8350766;28;20581;-61
2022/06/30 15:24:26;;;;;;;3.00;1.23;;;;;;;;;;8355821;28;20031;-59
2022/06/30 15:28:27;;;;;;;1.33;1.23;;;;;;;;;;8358207;28;20084;-60
2022/06/30 15:32:30;;;;;;;1.77;1.40;;;;;;;;;;8354736;28;20105;-60
2022/06/30 15:36:30;;;;;;;3.92;1.45;;;;;;;;;;8357184;28;20055;-60
2022/06/30 15:40:30;;;;;;;3.25;1.40;;;;;;;;;;8357200;28;20066;-60
2022/06/30 15:44:31;;;;;;;1.55;1.20;;;;;;;;;;8354949;28;20031;-60
2022/06/30 15:48:31;;;;;;;1.87;1.57;;;;;;;;;;8354235;28;20029;-59
2022/06/30 15:52:32;;;;;;;4.18;1.45;;;;;;;;;;8354891;28;20738;-60
2022/06/30 15:56:32;;;;;;;1.83;1.40;;;;;;;;;;8356285;28;20549;-60
2022/06/30 16:00:33;;;;;;;4.03;1.40;;;;;;;;;;8356001;28;20032;-59
2022/06/30 16:04:34;;;;;;;1.77;1.40;;;;;;;;;;8355175;28;20028;-59
2022/06/30 16:08:35;;;;;;;1.85;1.30;;;;;;;;;;8354403;28;20028;-59
2022/06/30 16:12:35;;;;;;;4.23;1.80;;;;;;;;;;8351632;28;20040;-59
2022/06/30 16:16:36;;;;;;;3.67;1.83;;;;;;;;;;8352625;28;20127;-59
2022/06/30 16:20:36;;;;;;;2.08;1.38;;;;;;;;;;8356344;28;20024;-60
2022/06/30 16:24:36;;;;;;;3.33;1.40;;;;;;;;;;8355860;28;20040;-62
2022/06/30 16:28:39;;;;;;;1.43;1.20;;;;;;;;;;8353042;28;20032;-59
2022/06/30 16:32:39;;;;;;;3.88;1.60;;;;;;;;;;8350945;28;20040;-59
2022/06/30 16:36:41;;;;;;;2.25;1.80;;;;;;;;;;8354386;28;20016;-60
2022/06/30 16:40:45;;;;;;;2.22;1.80;;;;;;;;;;8354694;28;20320;-59
2022/06/30 16:44:46;;;;;;;4.78;2.45;;;;;;;;;;8352892;28;20028;-60
2022/06/30 16:48:48;;;;;;;1.58;1.48;;;;;;;;;;8349834;28;20693;-59
2022/06/30 16:52:49;;;;;;;2.78;1.70;;;;;;;;;;8351370;28;20039;-59
2022/06/30 16:56:49;;;;;;;6.55;1.70;;;;;;;;;;8353453;28;20017;-60
2022/06/30 17:00:49;;;;;;;4.65;1.63;;;;;;;;;;8348488;28;20086;-60
2022/06/30 17:04:49;;;;;;;3.27;1.70;;;;;;;;;;8350826;28;20238;-59
2022/06/30 17:08:50;;;;;;;3.10;1.67;;;;;;;;;;8350262;28;20028;-59
2022/06/30 17:12:50;;;;;;;2.67;1.70;;;;;;;;;;8351542;28;20028;-59
2022/06/30 17:16:50;;;;;;;4.57;1.80;;;;;;;;;;8349534;28;20237;-60
2022/06/30 17:20:50;;;;;;;5.93;1.92;;;;;;;;;;8350832;28;20028;-58
2022/06/30 17:24:50;;;;;;;4.18;1.83;;;;;;;;;;8350445;28;20040;-58
2022/06/30 17:28:50;;;;;;;6.28;1.63;;;;;;;;;;8351777;28;20063;-58
2022/06/30 17:32:51;;;;;;;2.80;1.70;;;;;;;;;;8349723;28;20047;-57
2022/06/30 17:36:51;;;;;;;5.90;1.85;;;;;;;;;;8353529;28;20024;-58
2022/06/30 17:40:54;;;;;;;2.60;1.88;;;;;;;;;;8352088;28;20728;-58
2022/06/30 17:44:54;;;;;;;3.63;2.00;;;;;;;;;;8349730;28;20064;-58
2022/06/30 17:48:54;;;;;;;3.83;1.80;;;;;;;;;;8348677;28;20040;-57
2022/06/30 17:52:55;;;;;;;3.03;1.95;;;;;;;;;;8352349;28;20055;-57
2022/06/30 17:56:55;;;;;;;2.35;1.95;;;;;;;;;;8349892;28;20047;-59
2022/06/30 18:00:56;;;;;;;1.95;1.63;;;;;;;;;;8349632;28;20028;-58
2022/06/30 18:04:56;;;;;;;3.30;1.97;;;;;;;;;;8350676;28;20074;-57
2022/06/30 18:13:17;;;;;;;4.13;1.80;;;;;;;;;;8359172;28;20173;-57
2022/06/30 18:17:17;;;;;;;3.50;1.90;;;;;;;;;;8346282;28;20041;-58
2022/06/30 18:21:17;;;;;;;1.92;1.70;;;;;;;;;;8345804;28;20024;-58
2022/06/30 18:25:17;;;;;;;6.38;1.90;;;;;;;;;;8347187;28;20324;-58
2022/06/30 18:29:18;;;;;;;2.07;1.80;;;;;;;;;;8346531;28;20039;-57
2022/06/30 18:33:18;;;;;;;3.95;2.28;;;;;;;;;;8346214;28;20108;-58
2022/06/30 18:37:20;;;;;;;4.18;2.20;;;;;;;;;;8344699;28;20021;-58
2022/06/30 18:41:29;;;;;;;3.67;2.20;;;;;;;;;;8350661;28;20030;-58
2022/06/30 18:45:29;;;;;;;9.73;2.15;;;;;;;;;;8351502;28;20047;-58
2022/06/30 18:49:30;;;;;;;5.93;2.53;;;;;;;;;;8350796;28;20375;-58
2022/06/30 18:53:30;;;;;;;6.85;2.47;;;;;;;;;;8354024;28;20601;-58
2022/06/30 18:57:30;;;;;;;7.70;2.78;;;;;;;;;;8353152;28;20024;-59
2022/06/30 19:01:31;;;;;;;6.10;2.97;;;;;;;;;;8351474;28;20741;-59
2022/06/30 19:05:32;;;;;;;6.53;2.67;;;;;;;;;;8354884;28;20568;-59
2022/06/30 19:09:32;;;;;;;5.72;2.90;;;;;;;;;;8350280;28;20084;-59
2022/06/30 19:13:33;;;;;;;5.33;2.60;;;;;;;;;;8351000;28;20016;-59
2022/06/30 19:17:33;;;;;;;6.38;2.67;;;;;;;;;;8350478;28;20263;-59
2022/06/30 19:21:33;;;;;;;8.15;2.70;;;;;;;;;;8353414;28;20028;-60
2022/06/30 19:25:34;;;;;;;9.95;2.80;;;;;;;;;;8349017;28;20619;-58
2022/06/30 19:29:34;;;;;;;7.00;2.70;;;;;;;;;;8349121;28;20020;-58
2022/06/30 19:33:38;;;;;;;10.98;2.60;;;;;;;;;;8349775;28;20102;-60
2022/06/30 19:37:39;;;;;;;5.43;2.40;;;;;;;;;;8350886;28;20024;-58
2022/06/30 19:41:39;;;;;;;5.27;2.03;;;;;;;;;;8351611;28;20408;-58
2022/06/30 19:45:39;;;;;;;3.92;1.63;;;;;;;;;;8349793;28;20489;-58
2022/06/30 19:49:39;;;;;;;2.90;1.60;;;;;;;;;;8355227;28;20061;-59
2022/06/30 19:53:43;;;;;;;2.05;1.40;;;;;;;;;;8352311;28;20020;-58
2022/06/30 19:57:43;;;;;;;2.33;1.33;;;;;;;;;;8354377;28;20028;-60
2022/06/30 20:01:43;;;;;;;2.50;1.30;;;;;;;;;;8349792;28;20176;-58
2022/06/30 20:05:44;;;;;;;2.00;1.10;;;;;;;;;;8350773;28;20537;-58
2022/06/30 20:14:04;;;;;;;1.70;0.90;;;;;;;;;;8352917;28;20034;-59
2022/06/30 20:18:04;;;;;;;1.00;0.90;;;;;;;;;;8351237;28;20402;-58
2022/06/30 20:22:04;;;;;;;1.35;0.80;;;;;;;;;;8350402;28;20035;-59
2022/06/30 20:26:05;;;;;;;0.95;0.70;;;;;;;;;;8350134;28;20483;-58
2022/06/30 20:30:05;;;;;;;2.65;0.70;;;;;;;;;;8349948;28;20715;-59
2022/06/30 20:34:07;;;;;;;0.60;0.60;;;;;;;;;;8352739;28;20584;-59
2022/06/30 20:38:07;;;;;;;0.50;0.50;;;;;;;;;;8350789;28;21132;-59
2022/06/30 20:42:07;;;;;;;0.93;0.50;;;;;;;;;;8351342;28;20039;-60
2022/06/30 20:46:07;;;;;;;1.55;0.57;;;;;;;;;;8347633;28;20041;-58
2022/06/30 20:54:27;;;;;;;1.50;0.80;;;;;;;;;;8352258;28;20397;-59
2022/06/30 20:58:27;;;;;;;0.98;0.45;;;;;;;;;;8348858;28;20233;-58
2022/06/30 21:02:27;;;;;;;0.70;0.60;;;;;;;;;;8346872;28;20109;-58
2022/06/30 21:06:27;;;;;;;2.92;0.47;;;;;;;;;;8352300;28;20067;-58
2022/06/30 21:10:27;;;;;;;0.40;0.40;;;;;;;;;;8349434;28;20040;-57
2022/06/30 21:14:28;;;;;;;0.50;0.50;;;;;;;;;;8350912;28;20029;-57
2022/06/30 21:18:28;;;;;;;1.10;0.70;;;;;;;;;;8349465;28;20032;-59
2022/06/30 21:22:28;;;;;;;1.23;0.50;;;;;;;;;;8347356;28;20036;-59
2022/06/30 21:26:36;;;;;;;0.50;0.50;;;;;;;;;;8298578;28;20730;-57
2022/06/30 21:30:36;;;;;;;2.78;0.60;;;;;;;;;;8290198;28;20033;-58
2022/06/30 21:34:37;;;;;;;0.50;0.50;;;;;;;;;;8322859;28;20036;-57
2022/06/30 21:38:37;;;;;;;2.40;0.50;;;;;;;;;;8318583;28;20199;-57
2022/06/30 21:42:38;;;;;;;0.40;0.40;;;;;;;;;;8318976;28;20084;-57
2022/06/30 21:46:38;;;;;;;0.60;0.60;;;;;;;;;;8318002;28;20040;-57
2022/06/30 21:50:39;;;;;;;2.10;0.60;;;;;;;;;;8315146;28;20135;-57
2022/06/30 21:54:40;;;;;;;2.92;0.50;;;;;;;;;;8313287;28;20946;-57
2022/06/30 21:58:40;;;;;;;2.90;0.73;;;;;;;;;;8318901;28;20747;-59
2022/06/30 22:02:40;;;;;;;1.65;0.50;;;;;;;;;;8316585;28;20214;-57
2022/06/30 22:06:41;;;;;;;0.40;0.40;;;;;;;;;;8317672;28;20027;-58
2022/06/30 22:10:41;;;;;;;3.15;0.70;;;;;;;;;;8317193;28;20090;-59
2022/06/30 22:14:41;;;;;;;0.50;0.50;;;;;;;;;;8317387;28;20025;-57
2022/06/30 22:18:41;;;;;;;0.82;0.60;;;;;;;;;;8348893;28;20068;-58
2022/06/30 22:22:41;;;;;;;1.98;0.47;;;;;;;;;;8351475;28;20032;-58
2022/06/30 22:26:42;;;;;;;0.50;0.50;;;;;;;;;;8345710;28;20197;-57
2022/06/30 22:30:42;;;;;;;2.17;0.60;;;;;;;;;;8348254;28;20037;-58
2022/06/30 22:34:43;;;;;;;1.00;0.60;;;;;;;;;;8345316;28;20150;-57
2022/06/30 22:38:43;;;;;;;1.15;0.50;;;;;;;;;;8328162;28;20016;-58
2022/06/30 22:42:44;;;;;;;2.92;0.47;;;;;;;;;;8329854;28;20025;-57
2022/06/30 22:46:44;;;;;;;1.33;0.50;;;;;;;;;;8328964;28;20481;-56
2022/06/30 22:50:44;;;;;;;1.70;0.52;;;;;;;;;;8328188;28;20605;-58
2022/06/30 22:54:44;;;;;;;0.50;0.50;;;;;;;;;;8327376;28;20660;-60
2022/06/30 22:58:44;;;;;;;3.70;0.57;;;;;;;;;;8330667;28;20278;-60
2022/06/30 23:02:45;;;;;;;0.60;0.60;;;;;;;;;;8325237;28;20044;-59
2022/06/30 23:06:45;;;;;;;1.45;0.55;;;;;;;;;;8327162;28;20625;-59
2022/06/30 23:10:45;;;;;;;1.65;0.60;;;;;;;;;;8330959;28;20025;-59
2022/06/30 23:14:45;;;;;;;0.70;0.60;;;;;;;;;;8326844;28;20035;-59
2022/06/30 23:18:45;;;;;;;0.40;0.40;;;;;;;;;;8324015;28;20046;-59
2022/06/30 23:22:46;;;;;;;2.05;0.45;;;;;;;;;;8324079;28;20261;-59
2022/06/30 23:26:47;;;;;;;0.52;0.50;;;;;;;;;;8323655;28;20730;-59
2022/06/30 23:30:48;;;;;;;0.60;0.50;;;;;;;;;;8326185;28;20738;-59
2022/06/30 23:34:48;;;;;;;0.55;0.43;;;;;;;;;;8324955;28;20094;-60
2022/06/30 23:38:48;;;;;;;1.20;0.50;;;;;;;;;;8322145;28;20051;-60
2022/06/30 23:42:48;;;;;;;0.57;0.50;;;;;;;;;;8324773;28;20024;-61
2022/06/30 23:46:49;;;;;;;0.80;0.60;;;;;;;;;;8324488;28;20284;-60
2022/06/30 23:50:49;;;;;;;1.00;0.40;;;;;;;;;;8326305;28;20030;-60
2022/06/30 23:54:49;;;;;;;3.10;0.50;;;;;;;;;;8324549;28;20483;-61
2022/06/30 23:58:51;;;;;;;0.70;0.40;;;;;;;;;;8327496;28;20077;-61
